Time;durP1;ratioP1;P1;durP2;ratioP2;P2;SDS_P1;SDS_P2;PMS_P1;PMS_P2;Temp;Humidity;BMP_temperature;BMP_pressure;BME280_temperature;BME280_humidity;BME280_pressure;Samples;Min_cycle;Max_cycle;Signal;HPM_P1;HPM_P2
2023/06/23 00:01:57;;;;;;;;;;;;;;;23.49;97.94;99956.94;6382384;27;19920;-71
2023/06/23 00:04:58;;;;;;;;;;;;;;;23.44;98.14;99955.81;6347992;28;20398;-71
2023/06/23 00:07:59;;;;;;;;;;;;;;;23.45;97.56;99968.97;6348161;28;19919;-71
2023/06/23 00:11:00;;;;;;;;;;;;;;;23.31;99.00;99965.22;6349132;28;20010;-70
2023/06/23 00:14:00;;;;;;;;;;;;;;;23.26;99.65;99964.09;6349392;28;19920;-71
2023/06/23 00:17:01;;;;;;;;;;;;;;;23.27;100.00;99966.59;6347998;28;19927;-70
2023/06/23 00:20:03;;;;;;;;;;;;;;;23.11;100.00;99969.38;6349024;28;19959;-70
2023/06/23 00:23:05;;;;;;;;;;;;;;;23.00;100.00;99972.41;6347912;28;19926;-70
2023/06/23 00:26:07;;;;;;;;;;;;;;;23.05;100.00;99975.41;6347628;28;19920;-70
2023/06/23 00:29:08;;;;;;;;;;;;;;;23.08;100.00;99985.69;6347475;28;20336;-70
2023/06/23 00:32:08;;;;;;;;;;;;;;;23.15;100.00;99975.19;6381836;27;19919;-70
2023/06/23 00:35:09;;;;;;;;;;;;;;;23.06;100.00;99966.41;6348812;28;20006;-70
2023/06/23 00:38:10;;;;;;;;;;;;;;;23.02;100.00;99968.63;6381500;27;20302;-71
2023/06/23 00:41:11;;;;;;;;;;;;;;;23.05;100.00;99970.91;6347453;28;19969;-70
2023/06/23 00:44:13;;;;;;;;;;;;;;;23.00;100.00;99969.75;6346546;28;19963;-70
2023/06/23 00:47:15;;;;;;;;;;;;;;;23.06;100.00;99959.28;6346957;28;19920;-70
2023/06/23 00:50:20;;;;;;;;;;;;;;;23.10;100.00;99955.25;6348126;28;19920;-70
2023/06/23 00:53:22;;;;;;;;;;;;;;;23.02;100.00;99957.13;6346901;28;20330;-70
2023/06/23 00:56:27;;;;;;;;;;;;;;;23.09;99.92;99950.91;6348233;27;19926;-70
2023/06/23 00:59:29;;;;;;;;;;;;;;;23.08;99.75;99949.28;6346686;28;19920;-70
2023/06/23 01:02:31;;;;;;;;;;;;;;;23.03;99.92;99948.16;6348185;28;19926;-70
2023/06/23 01:05:36;;;;;;;;;;;;;;;23.01;100.00;99942.16;6346736;28;19926;-70
2023/06/23 01:08:41;;;;;;;;;;;;;;;23.03;99.96;99945.50;6347908;28;19923;-70
2023/06/23 01:12:01;;;;;;;;;;;;;;;22.92;100.00;99936.88;6347733;28;19978;-71
2023/06/23 01:15:13;;;;;;;;;;;;;;;22.78;100.00;99926.19;6346537;28;19927;-71
2023/06/23 01:18:27;;;;;;;;;;;;;;;22.65;100.00;99922.25;6346322;28;20230;-71
2023/06/23 01:21:38;;;;;;;;;;;;;;;22.59;100.00;99925.63;6346602;28;19919;-71
2023/06/23 01:24:43;;;;;;;;;;;;;;;22.62;100.00;99921.78;6346266;28;19924;-70
2023/06/23 01:27:50;;;;;;;;;;;;;;;22.58;100.00;99915.97;6346305;28;19923;-71
2023/06/23 01:30:53;;;;;;;;;;;;;;;22.56;100.00;99923.28;6346258;28;20143;-71
2023/06/23 01:34:01;;;;;;;;;;;;;;;22.50;100.00;99922.16;6347431;28;20265;-71
2023/06/23 01:37:18;;;;;;;;;;;;;;;22.46;100.00;99920.03;6346298;28;19926;-70
2023/06/23 01:40:22;;;;;;;;;;;;;;;22.47;100.00;99932.31;6346118;28;19920;-71
2023/06/23 01:43:29;;;;;;;;;;;;;;;22.46;100.00;99928.81;6347191;28;19920;-70
2023/06/23 01:46:35;;;;;;;;;;;;;;;22.44;100.00;99930.81;6346086;28;19974;-71
2023/06/23 01:49:37;;;;;;;;;;;;;;;22.39;100.00;99933.19;6345770;28;19919;-71
2023/06/23 01:52:42;;;;;;;;;;;;;;;22.29;100.00;99944.00;6347297;28;19924;-71
2023/06/23 01:55:45;;;;;;;;;;;;;;;22.30;100.00;99948.34;6349658;28;20367;-70
2023/06/23 01:58:50;;;;;;;;;;;;;;;22.26;100.00;99947.03;6352463;27;19919;-70
2023/06/23 02:01:56;;;;;;;;;;;;;;;22.29;100.00;99945.84;6352216;28;20290;-70
2023/06/23 02:05:01;;;;;;;;;;;;;;;22.29;100.00;99949.34;6351286;28;19919;-71
2023/06/23 02:08:04;;;;;;;;;;;;;;;22.29;100.00;99944.00;6350826;28;19924;-70
2023/06/23 02:11:08;;;;;;;;;;;;;;;22.20;100.00;99946.88;6352306;28;19927;-70
2023/06/23 02:14:13;;;;;;;;;;;;;;;22.20;100.00;99946.88;6352067;28;19965;-70
2023/06/23 02:17:17;;;;;;;;;;;;;;;22.30;100.00;99947.53;6384672;27;20359;-70
2023/06/23 02:20:23;;;;;;;;;;;;;;;22.28;100.00;99945.03;6350582;28;19926;-70
2023/06/23 02:23:27;;;;;;;;;;;;;;;22.11;100.00;99938.94;6352036;28;19920;-70
2023/06/23 02:26:32;;;;;;;;;;;;;;;22.07;100.00;99942.06;6350605;28;20274;-71
2023/06/23 02:29:35;;;;;;;;;;;;;;;22.11;100.00;99949.56;6350415;28;19927;-70
2023/06/23 02:32:39;;;;;;;;;;;;;;;22.06;100.00;99951.06;6350477;28;19926;-70
2023/06/23 02:35:42;;;;;;;;;;;;;;;22.01;100.00;99951.56;6351788;28;19965;-70
2023/06/23 02:38:43;;;;;;;;;;;;;;;22.03;100.00;99960.19;6351246;28;20393;-71
2023/06/23 02:41:49;;;;;;;;;;;;;;;22.07;100.00;99953.56;6350160;28;19920;-70
2023/06/23 02:45:02;;;;;;;;;;;;;;;22.07;100.00;99958.88;6383757;27;19923;-70
2023/06/23 02:48:16;;;;;;;;;;;;;;;22.01;100.00;99962.19;6350942;28;20287;-71
2023/06/23 02:51:36;;;;;;;;;;;;;;;22.09;100.00;99953.34;6350071;28;19924;-70
2023/06/23 02:54:43;;;;;;;;;;;;;;;22.17;100.00;99961.31;6351027;28;19993;-70
2023/06/23 02:57:49;;;;;;;;;;;;;;;22.26;100.00;99959.50;6350911;28;19923;-70
2023/06/23 03:00:51;;;;;;;;;;;;;;;22.35;100.00;99968.25;6349844;28;19919;-70
2023/06/23 03:03:54;;;;;;;;;;;;;;;22.41;100.00;99962.25;6350915;28;20010;-70
2023/06/23 03:06:56;;;;;;;;;;;;;;;22.44;100.00;99964.56;6348849;28;20411;-70
2023/06/23 03:09:57;;;;;;;;;;;;;;;22.46;100.00;99973.19;6349433;28;20299;-70
2023/06/23 03:13:00;;;;;;;;;;;;;;;22.44;100.00;99970.69;6349386;28;19923;-70
2023/06/23 03:16:05;;;;;;;;;;;;;;;22.50;100.00;99979.81;6383419;27;19919;-70
2023/06/23 03:19:09;;;;;;;;;;;;;;;22.58;100.00;99981.63;6349100;28;19955;-71
2023/06/23 03:22:38;;;;;;;;;;;;;;;22.59;100.00;99984.13;6350531;28;19924;-71
2023/06/23 03:25:47;;;;;;;;;;;;;;;22.59;100.00;99975.28;6348232;28;19920;-70
2023/06/23 03:29:00;;;;;;;;;;;;;;;22.57;100.00;99966.66;6350281;27;19920;-70
2023/06/23 03:32:06;;;;;;;;;;;;;;;22.56;100.00;99968.50;6350386;28;20018;-71
2023/06/23 03:35:10;;;;;;;;;;;;;;;22.61;100.00;99957.31;6350175;28;20164;-70
2023/06/23 03:38:17;;;;;;;;;;;;;;;22.63;100.00;99948.19;6349079;28;19920;-71
2023/06/23 03:41:19;;;;;;;;;;;;;;;22.62;100.00;99946.53;6350004;28;19926;-71
2023/06/23 03:44:24;;;;;;;;;;;;;;;22.67;100.00;99954.81;6348639;28;19919;-70
2023/06/23 03:47:29;;;;;;;;;;;;;;;22.73;100.00;99953.28;6349873;28;19919;-71
2023/06/23 03:50:38;;;;;;;;;;;;;;;22.75;100.00;99948.59;6348279;28;19920;-71
2023/06/23 03:53:40;;;;;;;;;;;;;;;22.72;100.00;99947.13;6348662;28;19919;-71
2023/06/23 03:56:47;;;;;;;;;;;;;;;22.70;100.00;99941.16;6349555;27;19920;-70
2023/06/23 03:59:49;;;;;;;;;;;;;;;22.78;100.00;99934.16;6348305;28;19971;-71
2023/06/23 04:02:53;;;;;;;;;;;;;;;22.82;100.00;99938.94;6349376;28;20377;-70
2023/06/23 04:05:57;;;;;;;;;;;;;;;22.89;100.00;99937.22;6349606;28;19920;-71
2023/06/23 04:09:02;;;;;;;;;;;;;;;22.92;100.00;99946.69;6349186;28;19982;-70
2023/06/23 04:12:05;;;;;;;;;;;;;;;23.06;100.00;99948.63;6349118;28;19919;-71
2023/06/23 04:15:08;;;;;;;;;;;;;;;23.09;100.00;99944.78;6349145;28;19924;-70
2023/06/23 04:18:15;;;;;;;;;;;;;;;23.22;100.00;99949.50;6347261;28;19920;-70
2023/06/23 04:21:19;;;;;;;;;;;;;;;23.37;100.00;99955.72;6349220;28;19919;-70
2023/06/23 04:24:22;;;;;;;;;;;;;;;23.41;100.00;99948.19;6349088;28;19919;-70
2023/06/23 04:27:31;;;;;;;;;;;;;;;23.49;100.00;99945.44;6347877;28;19924;-70
2023/06/23 04:30:34;;;;;;;;;;;;;;;23.56;100.00;99950.91;6347638;28;19926;-70
2023/06/23 04:33:37;;;;;;;;;;;;;;;23.59;100.00;99951.34;6348723;28;20287;-70
2023/06/23 04:36:45;;;;;;;;;;;;;;;23.74;100.00;99956.69;6348881;28;19928;-70
2023/06/23 04:39:56;;;;;;;;;;;;;;;23.81;100.00;99952.34;6348671;28;19926;-70
2023/06/23 04:43:18;;;;;;;;;;;;;;;23.85;100.00;99958.13;6379268;27;19919;-71
2023/06/23 04:46:39;;;;;;;;;;;;;;;23.91;100.00;99958.22;6348259;28;19942;-70
2023/06/23 04:49:45;;;;;;;;;;;;;;;24.04;99.89;99960.25;6346938;28;20010;-71
2023/06/23 04:52:48;;;;;;;;;;;;;;;24.08;98.63;99960.72;6346959;28;19943;-71
2023/06/23 04:55:54;;;;;;;;;;;;;;;24.17;98.01;99964.91;6347157;28;19972;-70
2023/06/23 04:59:02;;;;;;;;;;;;;;;24.24;96.87;99960.53;6346885;28;19958;-71
2023/06/23 05:02:06;;;;;;;;;;;;;;;24.29;96.22;99962.63;6348152;28;19972;-71
2023/06/23 05:05:09;;;;;;;;;;;;;;;24.36;95.01;99960.03;6348034;28;19924;-70
2023/06/23 05:08:20;;;;;;;;;;;;;;;24.52;96.63;99971.38;6346788;28;20004;-71
2023/06/23 05:11:24;;;;;;;;;;;;;;;24.58;92.85;99977.78;6380087;27;19923;-71
2023/06/23 05:14:27;;;;;;;;;;;;;;;24.61;92.37;99980.09;6380296;27;20287;-71
2023/06/23 05:17:37;;;;;;;;;;;;;;;24.67;91.80;99974.00;6346705;28;19920;-71
2023/06/23 05:20:40;;;;;;;;;;;;;;;24.80;92.37;99981.34;6346351;28;20294;-71
2023/06/23 05:23:47;;;;;;;;;;;;;;;24.96;92.32;99982.94;6346458;28;19927;-71
2023/06/23 05:26:55;;;;;;;;;;;;;;;25.03;90.32;99978.50;6347859;28;19926;-70
2023/06/23 05:30:07;;;;;;;;;;;;;;;25.04;89.21;99981.97;6345877;28;20378;-71
2023/06/23 05:33:14;;;;;;;;;;;;;;;25.19;88.77;99979.28;6346778;28;19925;-70
2023/06/23 05:36:20;;;;;;;;;;;;;;;25.40;89.46;99981.97;6347400;28;19919;-71
2023/06/23 05:39:25;;;;;;;;;;;;;;;25.49;89.19;99985.31;6346104;28;19927;-71
2023/06/23 05:42:32;;;;;;;;;;;;;;;25.64;87.33;99999.44;6346034;28;20287;-71
2023/06/23 05:45:38;;;;;;;;;;;;;;;25.79;86.09;99999.34;6346345;28;20022;-71
2023/06/23 05:48:44;;;;;;;;;;;;;;;25.90;86.28;99992.66;6345753;28;19958;-71
2023/06/23 05:51:56;;;;;;;;;;;;;;;25.97;83.39;99988.19;6346211;28;20072;-71
2023/06/23 05:55:04;;;;;;;;;;;;;;;26.06;85.07;99992.34;6346132;28;19988;-71
2023/06/23 05:58:10;;;;;;;;;;;;;;;26.05;83.85;99987.22;6346189;28;19977;-70
2023/06/23 06:01:20;;;;;;;;;;;;;;;26.11;84.78;99986.44;6346969;28;20280;-70
2023/06/23 06:04:29;;;;;;;;;;;;;;;26.39;84.26;99980.19;6347310;28;19927;-71
2023/06/23 06:07:37;;;;;;;;;;;;;;;26.47;84.58;99988.88;6378624;27;20400;-70
2023/06/23 06:10:43;;;;;;;;;;;;;;;26.53;81.72;99984.56;6347131;28;19967;-71
2023/06/23 06:13:45;;;;;;;;;;;;;;;26.62;82.16;99986.06;6346874;28;20025;-72
2023/06/23 06:16:48;;;;;;;;;;;;;;;26.77;80.76;99988.63;6346055;28;19929;-72
2023/06/23 06:19:58;;;;;;;;;;;;;;;26.95;79.90;99985.34;6345739;28;19920;-71
2023/06/23 06:23:03;;;;;;;;;;;;;;;27.04;77.73;99978.78;6345889;28;19919;-71
2023/06/23 06:26:20;;;;;;;;;;;;;;;27.29;77.81;99971.03;6345797;28;19919;-70
2023/06/23 06:29:27;;;;;;;;;;;;;;;27.42;78.25;99972.06;6345542;28;19926;-71
2023/06/23 06:32:51;;;;;;;;;;;;;;;27.59;76.86;99970.59;6331894;28;19970;-71
2023/06/23 06:36:03;;;;;;;;;;;;;;;27.66;74.91;99971.44;6347306;28;19936;-70
2023/06/23 06:39:10;;;;;;;;;;;;;;;27.64;73.73;99962.78;6345403;28;19973;-70
2023/06/23 06:42:20;;;;;;;;;;;;;;;27.77;75.10;99958.44;6346985;28;20290;-71
2023/06/23 06:45:24;;;;;;;;;;;;;;;28.02;74.94;99945.22;6350091;28;19923;-71
2023/06/23 06:48:32;;;;;;;;;;;;;;;28.21;74.27;99954.22;6350039;28;19919;-71
2023/06/23 06:51:37;;;;;;;;;;;;;;;28.09;70.36;99946.84;6350935;28;19924;-71
2023/06/23 06:54:43;;;;;;;;;;;;;;;28.33;69.26;99953.38;6351312;28;19926;-71
2023/06/23 06:57:49;;;;;;;;;;;;;;;28.50;68.61;99953.75;6383609;27;19926;-71
2023/06/23 07:00:57;;;;;;;;;;;;;;;28.65;68.68;99953.47;6382839;27;19928;-70
2023/06/23 07:04:00;;;;;;;;;;;;;;;28.60;67.62;99953.28;6383517;27;19924;-71
2023/06/23 07:07:07;;;;;;;;;;;;;;;28.76;67.11;99957.31;6351018;28;20432;-71
2023/06/23 07:10:16;;;;;;;;;;;;;;;29.03;69.58;99949.09;6349631;28;19919;-71
2023/06/23 07:13:21;;;;;;;;;;;;;;;29.24;67.28;99945.25;6350605;28;20355;-71
2023/06/23 07:16:33;;;;;;;;;;;;;;;29.24;67.45;99950.63;6350631;27;19920;-71
2023/06/23 07:19:38;;;;;;;;;;;;;;;29.45;66.32;99954.81;6350669;28;19930;-71
2023/06/23 07:22:55;;;;;;;;;;;;;;;29.57;65.04;99958.44;6379300;27;19920;-72
2023/06/23 07:25:57;;;;;;;;;;;;;;;29.80;63.84;99967.75;6350357;28;20307;-71
2023/06/23 07:29:17;;;;;;;;;;;;;;;30.04;65.73;99966.91;6349233;28;19920;-71
2023/06/23 07:32:19;;;;;;;;;;;;;;;30.22;61.36;99963.34;6349152;28;19924;-71
2023/06/23 07:35:30;;;;;;;;;;;;;;;30.27;63.61;99965.38;6350140;28;20022;-71
2023/06/23 07:38:40;;;;;;;;;;;;;;;30.34;59.57;99958.09;6350163;28;19923;-70
2023/06/23 07:41:41;;;;;;;;;;;;;;;30.32;57.52;99966.38;6349904;28;19920;-70
2023/06/23 07:44:44;;;;;;;;;;;;;;;30.40;59.52;99962.56;6348760;28;20322;-71
2023/06/23 07:47:50;;;;;;;;;;;;;;;30.64;59.64;99963.50;6348610;28;20252;-70
2023/06/23 07:50:54;;;;;;;;;;;;;;;30.67;58.71;99946.06;6349965;28;19920;-71
2023/06/23 07:53:59;;;;;;;;;;;;;;;30.95;58.52;99955.44;6348330;28;20012;-71
2023/06/23 07:57:15;;;;;;;;;;;;;;;31.04;60.29;99949.47;6349867;28;19920;-71
2023/06/23 08:00:19;;;;;;;;;;;;;;;31.33;58.32;99960.44;6348393;28;19926;-71
2023/06/23 08:03:24;;;;;;;;;;;;;;;31.17;57.26;99953.84;6348453;28;19973;-71
2023/06/23 08:06:36;;;;;;;;;;;;;;;30.99;57.49;99943.13;6348545;28;19920;-70
2023/06/23 08:09:40;;;;;;;;;;;;;;;31.18;56.62;99938.50;6349540;28;19919;-71
2023/06/23 08:12:43;;;;;;;;;;;;;;;30.95;57.50;99936.56;6349203;28;19920;-71
2023/06/23 08:15:51;;;;;;;;;;;;;;;31.22;56.13;99943.19;6348287;28;19923;-71
2023/06/23 08:18:56;;;;;;;;;;;;;;;31.42;56.36;99921.31;6347787;28;19919;-71
2023/06/23 08:22:03;;;;;;;;;;;;;;;31.59;56.05;99932.25;6348089;28;19972;-72
2023/06/23 08:25:08;;;;;;;;;;;;;;;31.79;53.11;99931.84;6348960;28;19958;-71
2023/06/23 08:28:13;;;;;;;;;;;;;;;32.13;54.72;99932.06;6381041;27;20002;-71
2023/06/23 08:31:16;;;;;;;;;;;;;;;32.21;54.96;99933.59;6348798;28;19919;-71
2023/06/23 08:34:20;;;;;;;;;;;;;;;32.12;53.70;99935.81;6349103;28;19927;-71
2023/06/23 08:37:23;;;;;;;;;;;;;;;32.47;56.55;99932.19;6381224;27;19973;-71
2023/06/23 08:40:36;;;;;;;;;;;;;;;32.12;52.77;99938.50;6347385;28;19919;-71
2023/06/23 08:43:59;;;;;;;;;;;;;;;32.35;52.08;99934.94;6348380;28;19963;-72
2023/06/23 08:47:06;;;;;;;;;;;;;;;32.49;50.78;99932.75;6348664;28;19931;-71
2023/06/23 08:50:27;;;;;;;;;;;;;;;32.44;52.89;99933.50;6375869;27;19919;-71
2023/06/23 08:53:33;;;;;;;;;;;;;;;32.69;51.69;99926.97;6347208;28;20116;-70
2023/06/23 08:56:43;;;;;;;;;;;;;;;33.04;49.91;99931.34;6379392;27;19923;-71
2023/06/23 08:59:44;;;;;;;;;;;;;;;32.91;50.88;99930.59;6347166;28;19926;-70
2023/06/23 09:02:46;;;;;;;;;;;;;;;32.88;49.49;99927.56;6348079;28;20359;-71
2023/06/23 09:05:48;;;;;;;;;;;;;;;32.99;51.30;99939.34;6380502;27;19927;-70
2023/06/23 09:09:08;;;;;;;;;;;;;;;32.74;50.57;99940.56;6333266;28;20366;-71
2023/06/23 09:12:21;;;;;;;;;;;;;;;33.03;48.43;99935.09;6348162;27;20275;-71
2023/06/23 09:15:23;;;;;;;;;;;;;;;33.39;49.03;99938.44;6347637;28;19919;-72
2023/06/23 09:18:27;;;;;;;;;;;;;;;33.31;49.68;99942.34;6347605;28;20260;-71
2023/06/23 09:21:28;;;;;;;;;;;;;;;33.12;47.37;99941.78;6347705;28;19941;-71
2023/06/23 09:24:43;;;;;;;;;;;;;;;33.18;48.29;99950.81;6346749;28;19950;-71
2023/06/23 09:27:44;;;;;;;;;;;;;;;33.19;46.67;99947.03;6347625;28;19919;-71
2023/06/23 09:30:44;;;;;;;;;;;;;;;33.42;46.94;99941.47;6347887;28;19919;-71
2023/06/23 09:33:49;;;;;;;;;;;;;;;33.72;47.80;99951.09;6347499;28;19927;-71
2023/06/23 09:36:52;;;;;;;;;;;;;;;33.75;45.99;99947.09;6347494;28;20264;-71
2023/06/23 09:39:54;;;;;;;;;;;;;;;33.82;46.97;99943.13;6347419;28;19927;-72
2023/06/23 09:42:58;;;;;;;;;;;;;;;33.68;48.14;99928.34;6346235;28;19967;-70
2023/06/23 09:46:05;;;;;;;;;;;;;;;33.91;46.70;99940.81;6347661;28;19947;-71
2023/06/23 09:49:06;;;;;;;;;;;;;;;33.89;45.50;99935.66;6347442;28;19919;-71
2023/06/23 09:52:08;;;;;;;;;;;;;;;34.19;45.52;99942.56;6346360;28;19970;-71
2023/06/23 09:55:09;;;;;;;;;;;;;;;34.49;45.00;99936.69;6347595;28;19924;-71
2023/06/23 09:58:13;;;;;;;;;;;;;;;34.51;44.33;99934.53;6347636;28;19924;-71
2023/06/23 10:01:18;;;;;;;;;;;;;;;34.37;42.49;99927.03;6346477;28;19927;-71
2023/06/23 10:04:18;;;;;;;;;;;;;;;34.48;43.25;99924.19;6347122;28;20399;-71
2023/06/23 10:07:20;;;;;;;;;;;;;;;34.16;42.72;99918.69;6345783;28;19927;-71
2023/06/23 10:10:21;;;;;;;;;;;;;;;34.42;42.71;99917.09;6347253;28;19920;-70
2023/06/23 10:13:21;;;;;;;;;;;;;;;34.30;43.79;99914.50;6345772;28;19927;-71
2023/06/23 10:16:22;;;;;;;;;;;;;;;34.76;43.76;99908.78;6348623;28;19920;-71
2023/06/23 10:19:23;;;;;;;;;;;;;;;35.19;43.69;99917.03;6385550;27;19920;-71
2023/06/23 10:22:24;;;;;;;;;;;;;;;35.32;42.41;99916.59;6351903;28;20357;-71
2023/06/23 10:25:26;;;;;;;;;;;;;;;35.42;44.49;99911.22;6350740;28;19919;-71
2023/06/23 10:28:28;;;;;;;;;;;;;;;35.26;43.43;99910.31;6351784;28;19920;-71
2023/06/23 10:31:29;;;;;;;;;;;;;;;35.24;44.18;99917.06;6351910;28;19927;-71
2023/06/23 10:34:31;;;;;;;;;;;;;;;35.59;41.29;99910.25;6350240;28;20375;-71
2023/06/23 10:37:32;;;;;;;;;;;;;;;35.40;43.79;99905.25;6350591;28;19920;-71
2023/06/23 10:40:38;;;;;;;;;;;;;;;35.46;42.87;99903.38;6350256;28;19920;-71
2023/06/23 10:43:40;;;;;;;;;;;;;;;35.04;43.85;99901.44;6351284;28;20456;-72
2023/06/23 10:46:41;;;;;;;;;;;;;;;35.41;43.45;99895.22;6350127;28;19924;-71
2023/06/23 10:49:42;;;;;;;;;;;;;;;35.62;43.23;99888.00;6351196;28;20287;-71
2023/06/23 10:52:42;;;;;;;;;;;;;;;35.88;44.13;99895.22;6350121;28;19959;-71
2023/06/23 10:55:44;;;;;;;;;;;;;;;35.91;44.45;99894.69;6350996;28;19926;-71
2023/06/23 10:58:48;;;;;;;;;;;;;;;35.87;41.89;99882.72;6384311;27;19950;-71
2023/06/23 11:02:04;;;;;;;;;;;;;;;35.70;41.57;99876.69;6350964;28;20307;-71
2023/06/23 11:05:06;;;;;;;;;;;;;;;35.95;43.06;99872.44;6350817;28;20360;-71
2023/06/23 11:08:08;;;;;;;;;;;;;;;35.99;42.76;99868.09;6349589;28;20440;-70
2023/06/23 11:11:10;;;;;;;;;;;;;;;35.77;41.56;99871.00;6351096;28;20018;-71
2023/06/23 11:14:13;;;;;;;;;;;;;;;35.58;40.19;99870.63;6349333;28;20001;-71
2023/06/23 11:17:17;;;;;;;;;;;;;;;35.51;43.27;99868.94;6350865;28;19928;-71
2023/06/23 11:20:24;;;;;;;;;;;;;;;35.92;43.87;99861.03;6349604;28;19920;-71
2023/06/23 11:23:24;;;;;;;;;;;;;;;36.15;41.76;99869.81;6349387;28;19919;-71
2023/06/23 11:26:27;;;;;;;;;;;;;;;36.23;41.29;99854.91;6350434;28;19920;-71
2023/06/23 11:29:27;;;;;;;;;;;;;;;36.24;39.47;99851.09;6349726;28;19989;-71
2023/06/23 11:32:28;;;;;;;;;;;;;;;36.11;41.33;99846.97;6349161;28;20359;-71
2023/06/23 11:35:29;;;;;;;;;;;;;;;36.14;41.57;99851.91;6350067;28;19930;-71
2023/06/23 11:38:30;;;;;;;;;;;;;;;36.16;39.87;99857.03;6350497;28;19923;-71
2023/06/23 11:41:31;;;;;;;;;;;;;;;36.22;40.69;99854.09;6349850;28;20298;-71
2023/06/23 11:44:32;;;;;;;;;;;;;;;36.44;39.65;99850.31;6350226;28;19920;-71
2023/06/23 11:47:32;;;;;;;;;;;;;;;36.53;38.95;99853.31;6348624;28;19926;-71
2023/06/23 11:50:33;;;;;;;;;;;;;;;36.35;39.30;99850.03;6382796;27;19919;-71
2023/06/23 11:53:34;;;;;;;;;;;;;;;36.57;41.13;99844.34;6348533;28;20279;-71
2023/06/23 11:56:35;;;;;;;;;;;;;;;36.39;40.10;99850.31;6349848;28;19919;-71
2023/06/23 11:59:36;;;;;;;;;;;;;;;36.22;39.07;99847.81;6382910;27;19942;-71
2023/06/23 12:02:37;;;;;;;;;;;;;;;36.46;41.14;99850.84;6348273;28;19920;-71
2023/06/23 12:05:40;;;;;;;;;;;;;;;36.41;40.80;99843.53;6349548;28;20367;-72
2023/06/23 12:08:41;;;;;;;;;;;;;;;36.55;40.12;99841.09;6349279;28;20295;-71
2023/06/23 12:11:42;;;;;;;;;;;;;;;36.58;38.41;99831.59;6349493;28;19926;-71
2023/06/23 12:14:43;;;;;;;;;;;;;;;36.43;39.67;99841.34;6347947;28;19919;-71
2023/06/23 12:17:44;;;;;;;;;;;;;;;36.60;40.80;99827.50;6349380;28;19920;-71
2023/06/23 12:20:45;;;;;;;;;;;;;;;36.37;39.35;99828.84;6347810;28;19943;-71
2023/06/23 12:23:45;;;;;;;;;;;;;;;36.46;40.03;99823.69;6349231;28;20371;-71
2023/06/23 12:26:46;;;;;;;;;;;;;;;36.39;40.84;99812.28;6347556;28;19920;-71
2023/06/23 12:29:47;;;;;;;;;;;;;;;36.43;40.21;99805.22;6347908;28;19920;-71
2023/06/23 12:32:47;;;;;;;;;;;;;;;36.15;38.96;99807.34;6347764;28;20295;-71
2023/06/23 12:35:59;;;;;;;;;;;;;;;36.40;40.46;99803.84;6347347;28;19926;-71
2023/06/23 12:38:59;;;;;;;;;;;;;;;36.35;40.46;99792.19;6348075;28;20406;-71
2023/06/23 12:42:00;;;;;;;;;;;;;;;36.59;40.38;99790.56;6346986;28;19919;-71
2023/06/23 12:45:01;;;;;;;;;;;;;;;36.48;40.61;99780.78;6347358;28;20290;-71
2023/06/23 12:48:05;;;;;;;;;;;;;;;36.40;40.37;99771.25;6348237;28;19973;-71
2023/06/23 12:51:06;;;;;;;;;;;;;;;36.32;40.01;99779.94;6348485;28;19965;-71
2023/06/23 12:54:07;;;;;;;;;;;;;;;36.33;40.13;99778.06;6346942;28;19923;-71
2023/06/23 12:57:08;;;;;;;;;;;;;;;36.15;39.63;99773.97;6381529;27;20364;-71
2023/06/23 13:00:09;;;;;;;;;;;;;;;36.38;39.07;99768.00;6346853;28;20395;-71
2023/06/23 13:03:13;;;;;;;;;;;;;;;36.60;39.17;99756.84;6381535;27;19927;-71
2023/06/23 13:06:14;;;;;;;;;;;;;;;36.61;38.67;99761.22;6348082;28;19962;-71
2023/06/23 13:09:15;;;;;;;;;;;;;;;36.17;38.12;99761.75;6346627;28;20313;-70
2023/06/23 13:12:16;;;;;;;;;;;;;;;36.06;40.15;99760.91;6381145;27;19926;-71
2023/06/23 13:15:16;;;;;;;;;;;;;;;36.34;42.15;99756.03;6346468;28;19920;-72
2023/06/23 13:18:17;;;;;;;;;;;;;;;36.30;38.87;99757.66;6346507;28;20398;-71
2023/06/23 13:21:17;;;;;;;;;;;;;;;36.34;40.45;99758.75;6347610;28;19920;-70
2023/06/23 13:24:20;;;;;;;;;;;;;;;36.46;39.40;99753.88;6346635;28;19970;-70
2023/06/23 13:27:21;;;;;;;;;;;;;;;36.44;41.93;99757.94;6346363;28;20015;-71
2023/06/23 13:30:22;;;;;;;;;;;;;;;35.88;39.56;99748.63;6347516;28;19919;-70
2023/06/23 13:33:24;;;;;;;;;;;;;;;35.96;41.48;99746.50;6346416;28;19923;-70
2023/06/23 13:36:25;;;;;;;;;;;;;;;35.30;41.09;99740.56;6347358;28;19923;-71
2023/06/23 13:39:26;;;;;;;;;;;;;;;35.44;41.02;99740.09;6380453;27;19926;-71
2023/06/23 13:42:26;;;;;;;;;;;;;;;35.55;41.58;99735.50;6347247;28;19926;-71
2023/06/23 13:45:27;;;;;;;;;;;;;;;35.71;40.48;99731.78;6380517;27;20024;-71
2023/06/23 13:48:27;;;;;;;;;;;;;;;35.76;42.38;99728.28;6380177;27;19920;-71
2023/06/23 13:51:28;;;;;;;;;;;;;;;35.86;41.20;99718.25;6345958;28;19919;-71
2023/06/23 13:54:29;;;;;;;;;;;;;;;36.08;43.24;99720.72;6380189;27;19930;-71
2023/06/23 13:57:30;;;;;;;;;;;;;;;35.82;41.22;99719.88;6347279;28;19919;-71
2023/06/23 14:00:31;;;;;;;;;;;;;;;35.90;42.07;99710.38;6345754;28;19920;-71
2023/06/23 14:03:34;;;;;;;;;;;;;;;35.85;42.82;99707.66;6345847;28;19926;-71
2023/06/23 14:06:35;;;;;;;;;;;;;;;35.82;40.44;99706.28;6347064;28;19919;-71
2023/06/23 14:09:36;;;;;;;;;;;;;;;35.61;41.09;99705.41;6347109;28;19986;-71
2023/06/23 14:12:36;;;;;;;;;;;;;;;35.57;41.33;99698.09;6347023;28;19926;-71
2023/06/23 14:15:37;;;;;;;;;;;;;;;35.57;43.44;99688.03;6345661;28;20386;-71
2023/06/23 14:18:38;;;;;;;;;;;;;;;35.61;40.98;99697.28;6345776;28;20375;-71
2023/06/23 14:21:40;;;;;;;;;;;;;;;35.57;41.65;99695.38;6346887;28;20015;-70
2023/06/23 14:24:41;;;;;;;;;;;;;;;35.57;41.45;99693.47;6345648;28;20286;-71
2023/06/23 14:27:42;;;;;;;;;;;;;;;35.45;42.44;99701.84;6346750;28;19919;-70
2023/06/23 14:30:43;;;;;;;;;;;;;;;35.59;41.88;99713.00;6380134;27;19973;-71
2023/06/23 14:33:44;;;;;;;;;;;;;;;35.53;41.75;99711.34;6346890;28;20413;-71
2023/06/23 14:36:45;;;;;;;;;;;;;;;35.52;42.54;99709.72;6345366;28;19926;-71
2023/06/23 14:39:45;;;;;;;;;;;;;;;35.45;40.80;99709.16;6345519;28;19920;-70
2023/06/23 14:42:46;;;;;;;;;;;;;;;35.56;44.14;99704.56;6346602;28;19926;-71
2023/06/23 14:45:50;;;;;;;;;;;;;;;35.38;40.24;99705.91;6346739;28;19919;-71
2023/06/23 14:48:51;;;;;;;;;;;;;;;35.50;42.80;99698.31;6346473;28;19919;-71
2023/06/23 14:51:52;;;;;;;;;;;;;;;35.57;42.84;99700.78;6345624;28;19978;-70
2023/06/23 14:54:53;;;;;;;;;;;;;;;35.21;41.63;99703.38;6346535;28;19919;-71
2023/06/23 14:57:53;;;;;;;;;;;;;;;35.03;43.39;99713.59;6346712;28;19965;-71
2023/06/23 15:00:54;;;;;;;;;;;;;;;35.17;42.91;99710.41;6346501;28;20267;-70
2023/06/23 15:03:54;;;;;;;;;;;;;;;35.33;41.42;99703.97;6381853;27;19924;-71
2023/06/23 15:06:55;;;;;;;;;;;;;;;35.30;41.89;99704.50;6350956;28;19927;-71
2023/06/23 15:09:55;;;;;;;;;;;;;;;35.05;42.16;99706.00;6349631;28;19937;-72
2023/06/23 15:12:56;;;;;;;;;;;;;;;34.89;41.20;99694.25;6350940;28;19927;-72
2023/06/23 15:15:57;;;;;;;;;;;;;;;34.70;43.56;99698.50;6349601;28;19927;-71
2023/06/23 15:18:57;;;;;;;;;;;;;;;34.47;43.25;99695.06;6383838;27;19927;-71
2023/06/23 15:21:58;;;;;;;;;;;;;;;34.18;45.41;99689.13;6349369;28;19919;-70
2023/06/23 15:24:59;;;;;;;;;;;;;;;34.07;45.08;99680.09;6349488;28;19919;-72
2023/06/23 15:27:59;;;;;;;;;;;;;;;34.08;43.98;99670.91;6350298;27;19972;-71
2023/06/23 15:31:00;;;;;;;;;;;;;;;33.97;44.80;99665.66;6349134;28;20388;-71
2023/06/23 15:34:01;;;;;;;;;;;;;;;34.18;43.62;99659.38;6349249;28;19919;-71
2023/06/23 15:37:02;;;;;;;;;;;;;;;34.29;43.90;99654.88;6383261;27;19923;-71
2023/06/23 15:40:03;;;;;;;;;;;;;;;34.41;43.96;99647.38;6383402;27;20430;-71
2023/06/23 15:43:03;;;;;;;;;;;;;;;34.50;42.97;99624.13;6350049;28;20295;-70
2023/06/23 15:46:04;;;;;;;;;;;;;;;34.35;42.67;99632.16;6383397;27;19924;-70
2023/06/23 15:49:05;;;;;;;;;;;;;;;34.35;43.85;99625.91;6348476;28;19920;-71
2023/06/23 15:52:05;;;;;;;;;;;;;;;34.48;42.96;99598.38;6348911;28;19927;-71
2023/06/23 15:55:07;;;;;;;;;;;;;;;34.65;42.58;99598.22;6348474;28;19920;-71